createdAt,value
2019-04-06T00:00:17.186Z,94496.53
2019-04-06T00:02:43.563Z,94496.79
2019-04-06T00:05:09.907Z,94492.22
2019-04-06T00:07:36.254Z,94491.43
2019-04-06T00:10:02.599Z,94499.25
2019-04-06T00:12:31.048Z,94499.47
2019-04-06T00:14:57.413Z,94492.94
2019-04-06T00:17:23.824Z,94493.44
2019-04-06T00:19:50.205Z,94485.22
2019-04-06T00:22:16.485Z,94487.94
2019-04-06T00:24:42.873Z,94489.08
2019-04-06T00:27:09.338Z,94482.22
2019-04-06T00:29:35.768Z,94484.19
2019-04-06T00:32:02.064Z,94493.19
2019-04-06T00:34:28.434Z,94488.66
2019-04-06T00:36:54.762Z,94486.19
2019-04-06T00:39:21.195Z,94488.44
2019-04-06T00:41:47.539Z,94489.72
2019-04-06T00:44:13.883Z,94486.33
2019-04-06T00:46:40.219Z,94490.05
2019-04-06T00:49:06.629Z,94491.01
2019-04-06T00:51:32.965Z,94494.16
2019-04-06T00:53:59.346Z,94489.97
2019-04-06T00:56:25.850Z,94487.87
2019-04-06T00:58:53.406Z,94488.69
2019-04-06T01:01:19.726Z,94482.84
2019-04-06T01:03:46.065Z,94490.91
2019-04-06T01:06:12.518Z,94484.73
2019-04-06T01:08:38.865Z,94484.37
2019-04-06T01:11:05.130Z,94479.83
2019-04-06T01:13:31.498Z,94484.51
2019-04-06T01:15:57.831Z,94479.23
2019-04-06T01:18:24.162Z,94476.58
2019-04-06T01:20:50.498Z,94475.52
2019-04-06T01:23:16.865Z,94477.38
2019-04-06T01:25:43.156Z,94475.63
2019-04-06T01:28:09.498Z,94468.98
2019-04-06T01:30:35.857Z,94473.66
2019-04-06T01:33:02.187Z,94475.30
2019-04-06T01:35:28.561Z,94474.20
2019-04-06T01:37:54.951Z,94474.12
2019-04-06T01:40:21.305Z,94472.91
2019-04-06T01:42:47.784Z,94477.02
2019-04-06T01:45:14.078Z,94479.59
2019-04-06T01:47:40.362Z,94476.09
2019-04-06T01:50:06.744Z,94474.34
2019-04-06T01:52:33.274Z,94473.66
2019-04-06T01:54:59.432Z,94477.02
2019-04-06T01:57:25.768Z,94481.02
2019-04-06T01:59:52.115Z,94480.66
2019-04-06T02:02:18.456Z,94479.51
2019-04-06T02:04:44.923Z,94482.30
2019-04-06T02:07:11.240Z,94473.41
2019-04-06T02:09:37.576Z,94473.66
2019-04-06T02:12:04.012Z,94471.45
2019-04-06T02:14:30.420Z,94470.27
2019-04-06T02:16:56.888Z,94472.73
2019-04-06T02:19:26.327Z,94472.98
2019-04-06T02:21:52.620Z,94467.02
2019-04-06T02:24:18.952Z,94468.66
2019-04-06T02:26:45.298Z,94462.34
2019-04-06T02:29:11.643Z,94463.98
2019-04-06T02:31:37.978Z,94462.34
2019-04-06T02:34:04.353Z,94461.88
2019-04-06T02:36:30.721Z,94461.30
2019-04-06T02:38:57.041Z,94460.63
2019-04-06T02:41:23.432Z,94462.95
2019-04-06T02:43:49.716Z,94464.23
2019-04-06T02:46:16.040Z,94462.13
2019-04-06T02:48:42.429Z,94460.95
2019-04-06T02:51:08.767Z,94458.98
2019-04-06T02:53:35.177Z,94459.80
2019-04-06T02:56:01.471Z,94464.27
2019-04-06T02:58:27.850Z,94458.05
2019-04-06T03:00:54.124Z,94460.63
2019-04-06T03:03:20.527Z,94462.02
2019-04-06T03:05:46.794Z,94461.80
2019-04-06T03:08:13.203Z,94462.16
2019-04-06T03:10:39.554Z,94461.58
2019-04-06T03:13:05.899Z,94460.52
2019-04-06T03:15:32.297Z,94456.66
2019-04-06T03:17:58.702Z,94457.94
2019-04-06T03:20:25.026Z,94457.12
2019-04-06T03:22:51.371Z,94452.23
2019-04-06T03:25:17.744Z,94452.13
2019-04-06T03:27:44.076Z,94457.73
2019-04-06T03:30:10.452Z,94453.77
2019-04-06T03:32:36.963Z,94458.19
2019-04-06T03:35:03.167Z,94462.65
2019-04-06T03:37:29.572Z,94453.66
2019-04-06T03:39:55.891Z,94463.44
2019-04-06T03:42:22.370Z,94470.47
2019-04-06T03:44:48.659Z,94469.18
2019-04-06T03:47:15.045Z,94469.64
2019-04-06T03:49:41.342Z,94476.06
2019-04-06T03:52:07.711Z,94476.78
2019-04-06T03:54:34.151Z,94475.25
2019-04-06T03:57:13.634Z,94473.64
2019-04-06T03:59:26.770Z,94475.03
2019-04-06T04:01:53.123Z,94480.06
2019-04-06T04:04:19.518Z,94480.16
2019-04-06T04:06:45.936Z,94486.48
2019-04-06T04:09:12.373Z,94484.02
2019-04-06T04:11:38.699Z,94479.95
2019-04-06T04:14:05.268Z,94489.16
2019-04-06T04:16:31.482Z,94491.51
2019-04-06T04:18:57.876Z,94498.51
2019-04-06T04:21:24.232Z,94501.32
2019-04-06T04:23:50.564Z,94508.19
2019-04-06T04:26:17.009Z,94505.86
2019-04-06T04:28:43.578Z,94502.58
2019-04-06T04:31:09.768Z,94508.08
2019-04-06T04:33:36.179Z,94508.41
2019-04-06T04:36:02.639Z,94511.55
2019-04-06T04:38:28.968Z,94514.72
2019-04-06T04:40:55.506Z,94516.13
2019-04-06T04:43:21.642Z,94519.13
2019-04-06T04:45:48.000Z,94512.92
2019-04-06T04:48:14.576Z,94517.59
2019-04-06T04:50:40.682Z,94515.03
2019-04-06T04:53:07.049Z,94519.10
2019-04-06T04:55:33.405Z,94519.78
2019-04-06T04:57:59.804Z,94523.28
2019-04-06T05:00:26.137Z,94521.21
2019-04-06T05:02:52.541Z,94520.61
2019-04-06T05:05:18.840Z,94525.04
2019-04-06T05:07:45.238Z,94525.75
2019-04-06T05:10:11.559Z,94528.39
2019-04-06T05:12:37.882Z,94518.69
2019-04-06T05:15:04.553Z,94520.44
2019-04-06T05:17:30.578Z,94522.40
2019-04-06T05:19:56.949Z,94528.11
2019-04-06T05:22:23.298Z,94522.58
2019-04-06T05:24:49.665Z,94527.00
2019-04-06T05:27:16.106Z,94519.64
2019-04-06T05:29:42.435Z,94522.58
2019-04-06T05:32:08.718Z,94530.14
2019-04-06T05:34:35.055Z,94531.11
2019-04-06T05:37:01.412Z,94536.58
2019-04-06T05:39:27.852Z,94527.11
2019-04-06T05:41:54.296Z,94529.83
2019-04-06T05:44:20.712Z,94532.86
2019-04-06T05:46:47.142Z,94530.29
2019-04-06T05:49:13.415Z,94526.90
2019-04-06T05:51:39.790Z,94526.90
2019-04-06T05:54:06.120Z,94524.79
2019-04-06T05:56:32.660Z,94525.25
2019-04-06T05:58:58.843Z,94523.50
2019-04-06T06:01:25.289Z,94531.11
2019-04-06T06:03:51.664Z,94522.90
2019-04-06T06:06:18.161Z,94530.04
2019-04-06T06:08:44.454Z,94527.00
2019-04-06T06:11:10.802Z,94520.17
2019-04-06T06:13:39.151Z,94520.17
2019-04-06T06:16:03.495Z,94526.61
2019-04-06T06:18:29.830Z,94527.57
2019-04-06T06:20:56.214Z,94529.79
2019-04-06T06:23:22.571Z,94527.43
2019-04-06T06:25:48.943Z,94527.78
2019-04-06T06:28:15.616Z,94528.25
2019-04-06T06:30:41.653Z,94521.20
2019-04-06T06:33:08.053Z,94520.95
2019-04-06T06:35:34.354Z,94529.96
2019-04-06T06:38:00.723Z,94527.59
2019-04-06T06:40:27.116Z,94524.34
2019-04-06T06:42:53.462Z,94528.06
2019-04-06T06:45:19.897Z,94521.84
2019-04-06T06:47:46.224Z,94524.62
2019-04-06T06:50:12.578Z,94524.16
2019-04-06T06:52:39.061Z,94522.76
2019-04-06T06:55:05.328Z,94533.83
2019-04-06T06:57:31.770Z,94531.93
2019-04-06T06:59:58.152Z,94529.48
2019-04-06T07:02:24.503Z,94537.77
2019-04-06T07:04:50.845Z,94532.16
2019-04-06T07:07:17.376Z,94531.55
2019-04-06T07:09:43.558Z,94533.86
2019-04-06T07:12:09.939Z,94535.72
2019-04-06T07:14:36.311Z,94532.82
2019-04-06T07:17:02.627Z,94529.75
2019-04-06T07:19:29.004Z,94532.77
2019-04-06T07:21:55.497Z,94534.38
2019-04-06T07:24:21.770Z,94534.16
2019-04-06T07:26:48.080Z,94533.19
2019-04-06T07:29:14.567Z,94529.33
2019-04-06T07:31:40.803Z,94532.72
2019-04-06T07:34:07.396Z,94527.78
2019-04-06T07:36:33.443Z,94529.42
2019-04-06T07:38:59.810Z,94527.20
2019-04-06T07:41:26.299Z,94531.94
2019-04-06T07:43:52.620Z,94527.76
2019-04-06T07:46:18.784Z,94534.41
2019-04-06T07:48:45.436Z,94527.70
2019-04-06T07:51:11.632Z,94529.34
2019-04-06T07:53:37.985Z,94523.11
2019-04-06T07:56:04.312Z,94522.15
2019-04-06T07:58:30.714Z,94523.79
2019-04-06T08:00:57.104Z,94518.84
2019-04-06T08:03:23.413Z,94525.63
2019-04-06T08:05:49.788Z,94527.13
2019-04-06T08:08:16.165Z,94523.06
2019-04-06T08:10:42.666Z,94525.38
2019-04-06T08:13:09.187Z,94528.77
2019-04-06T08:15:35.823Z,94528.04
2019-04-06T08:18:02.530Z,94524.75
2019-04-06T08:20:28.623Z,94526.75
2019-04-06T08:22:55.114Z,94521.04
2019-04-06T08:25:21.656Z,94528.86
2019-04-06T08:27:48.010Z,94517.38
2019-04-06T08:30:14.432Z,94521.24
2019-04-06T08:35:07.083Z,94523.70
2019-04-06T08:37:33.452Z,94521.04
2019-04-06T08:39:59.892Z,94518.81
2019-04-06T08:42:26.114Z,94520.57
2019-04-06T08:44:52.492Z,94517.64
2019-04-06T08:47:18.825Z,94524.91
2019-04-06T08:49:45.184Z,94524.75
2019-04-06T08:52:11.934Z,94523.97
2019-04-06T08:54:37.908Z,94521.51
2019-04-06T08:57:04.307Z,94517.44
2019-04-06T08:59:30.647Z,94518.52
2019-04-06T09:01:56.985Z,94516.97
2019-04-06T09:04:23.346Z,94516.27
2019-04-06T09:06:49.721Z,94516.97
2019-04-06T09:09:16.076Z,94519.34
2019-04-06T09:11:42.412Z,94512.08
2019-04-06T09:14:08.744Z,94508.89
2019-04-06T09:16:35.159Z,94512.11
2019-04-06T09:19:01.494Z,94510.80
2019-04-06T09:21:27.808Z,94511.12
2019-04-06T09:23:54.200Z,94509.77
2019-04-06T09:26:20.499Z,94505.09
2019-04-06T09:28:46.919Z,94509.41
2019-04-06T09:31:13.331Z,94506.37
2019-04-06T09:33:39.666Z,94511.61
2019-04-06T09:36:06.207Z,94507.25
2019-04-06T09:38:32.351Z,94506.58
2019-04-06T09:40:58.815Z,94507.20
2019-04-06T09:43:25.407Z,94509.27
2019-04-06T09:45:51.602Z,94507.52
2019-04-06T09:48:18.222Z,94503.80
2019-04-06T09:50:44.290Z,94506.23
2019-04-06T09:53:10.967Z,94503.09
2019-04-06T09:55:37.288Z,94503.59
2019-04-06T09:58:03.474Z,94498.65
2019-04-06T10:00:29.877Z,94499.03
2019-04-06T10:02:56.070Z,94494.81
2019-04-06T10:05:22.461Z,94492.84
2019-04-06T10:07:48.885Z,94489.34
2019-04-06T10:10:15.157Z,94482.43
2019-04-06T10:12:41.527Z,94480.64
2019-04-06T10:15:07.867Z,94481.35
2019-04-06T10:17:34.205Z,94481.35
2019-04-06T10:20:00.842Z,94472.92
2019-04-06T10:22:26.911Z,94471.52
2019-04-06T10:24:53.291Z,94473.42
2019-04-06T10:27:19.699Z,94471.52
2019-04-06T10:29:49.195Z,94472.19
2019-04-06T10:32:12.345Z,94467.19
2019-04-06T10:34:38.675Z,94467.30
2019-04-06T10:37:05.067Z,94465.64
2019-04-06T10:39:31.445Z,94470.23
2019-04-06T10:41:57.845Z,94453.96
2019-04-06T10:44:24.390Z,94459.26
2019-04-06T10:46:50.689Z,94458.99
2019-04-06T10:49:17.013Z,94461.22
2019-04-06T10:51:43.376Z,94450.24
2019-04-06T10:54:09.713Z,94452.67
2019-04-06T10:56:36.054Z,94448.34
2019-04-06T10:59:03.682Z,94453.49
2019-04-06T11:01:29.014Z,94446.94
2019-04-06T11:03:55.339Z,94445.77
2019-04-06T11:06:21.704Z,94443.66
2019-04-06T11:08:48.087Z,94448.89
2019-04-06T11:11:17.996Z,94450.66
2019-04-06T11:13:40.782Z,94442.11
2019-04-06T11:16:07.289Z,94444.48
2019-04-06T11:18:33.455Z,94437.42
2019-04-06T11:21:00.046Z,94433.80
2019-04-06T11:23:26.274Z,94440.55
2019-04-06T11:25:52.528Z,94426.19
2019-04-06T11:28:19.070Z,94422.13
2019-04-06T11:30:45.423Z,94414.86
2019-04-06T11:33:11.810Z,94416.23
2019-04-06T11:35:38.199Z,94412.95
2019-04-06T11:38:04.569Z,94411.55
2019-04-06T11:40:30.918Z,94412.02
2019-04-06T11:42:57.336Z,94406.79
2019-04-06T11:45:23.697Z,94403.48
2019-04-06T11:47:50.000Z,94400.31
2019-04-06T11:50:16.274Z,94396.30
2019-04-06T11:52:42.611Z,94400.05
2019-04-06T11:55:09.163Z,94392.59
2019-04-06T11:57:35.292Z,94391.70
2019-04-06T12:00:01.758Z,94384.91
2019-04-06T12:02:28.153Z,94385.19
2019-04-06T12:04:54.472Z,94380.38
2019-04-06T12:07:23.363Z,94374.56
2019-04-06T12:09:49.698Z,94373.01
2019-04-06T12:12:16.091Z,94370.75
2019-04-06T12:14:42.421Z,94374.06
2019-04-06T12:17:08.850Z,94361.69
2019-04-06T12:19:35.298Z,94358.30
2019-04-06T12:22:01.489Z,94347.64
2019-04-06T12:24:27.941Z,94351.03
2019-04-06T12:26:54.177Z,94341.09
2019-04-06T12:29:20.616Z,94339.80
2019-04-06T12:31:46.908Z,94336.60
2019-04-06T12:34:13.399Z,94334.77
2019-04-06T12:36:39.600Z,94334.38
2019-04-06T12:39:06.060Z,94325.95
2019-04-06T12:41:32.403Z,94321.50
2019-04-06T12:43:58.805Z,94325.02
2019-04-06T12:46:25.109Z,94323.73
2019-04-06T12:48:52.703Z,94325.95
2019-04-06T12:51:17.807Z,94322.31
2019-04-06T12:53:44.184Z,94322.31
2019-04-06T12:56:10.524Z,94317.36
2019-04-06T12:58:36.827Z,94316.08
2019-04-06T13:01:03.157Z,94314.09
2019-04-06T13:03:29.624Z,94313.08
2019-04-06T13:05:56.187Z,94312.76
2019-04-06T13:08:22.568Z,94314.59
2019-04-06T13:10:48.681Z,94310.84
2019-04-06T13:13:14.956Z,94311.67
2019-04-06T13:15:41.383Z,94305.23
2019-04-06T13:18:08.467Z,94302.66
2019-04-06T13:20:34.541Z,94302.66
2019-04-06T13:23:00.723Z,94298.79
2019-04-06T13:25:27.432Z,94306.36
2019-04-06T13:27:53.443Z,94299.92
2019-04-06T13:30:19.952Z,94301.09
2019-04-06T13:32:46.427Z,94303.12
2019-04-06T13:35:12.802Z,94295.87
2019-04-06T13:37:39.240Z,94294.46
2019-04-06T13:40:05.498Z,94296.56
2019-04-06T13:42:31.864Z,94293.17
2019-04-06T13:44:58.376Z,94298.64
2019-04-06T13:47:24.697Z,94294.92
2019-04-06T13:49:51.413Z,94299.92
2019-04-06T13:52:17.746Z,94297.16
2019-04-06T13:54:44.137Z,94296.56
2019-04-06T13:57:10.599Z,94301.37
2019-04-06T13:59:36.850Z,94293.29
2019-04-06T14:02:03.220Z,94296.69
2019-04-06T14:04:29.864Z,94298.44
2019-04-06T14:06:55.963Z,94301.84
2019-04-06T14:09:22.227Z,94300.20
2019-04-06T14:11:48.574Z,94298.25
2019-04-06T14:14:14.956Z,94303.39
2019-04-06T14:16:41.516Z,94299.38
2019-04-06T14:19:07.862Z,94301.17
2019-04-06T14:21:34.194Z,94303.86
2019-04-06T14:24:00.665Z,94309.95
2019-04-06T14:26:26.965Z,94307.26
2019-04-06T14:28:53.298Z,94308.08
2019-04-06T14:31:27.436Z,94310.30
2019-04-06T14:33:46.159Z,94308.67
2019-04-06T14:36:12.397Z,94305.50
2019-04-06T14:38:38.838Z,94308.00
2019-04-06T14:41:05.179Z,94299.61
2019-04-06T14:43:31.496Z,94301.21
2019-04-06T14:45:57.869Z,94300.27
2019-04-06T14:48:24.505Z,94302.03
2019-04-06T14:50:50.536Z,94304.41
2019-04-06T14:53:17.109Z,94308.12
2019-04-06T14:55:43.473Z,94300.74
2019-04-06T14:58:09.635Z,94300.08
2019-04-06T15:00:36.232Z,94302.97
2019-04-06T15:03:02.689Z,94299.72
2019-04-06T15:05:28.826Z,94298.91
2019-04-06T15:07:56.846Z,94302.77
2019-04-06T15:10:21.591Z,94299.18
2019-04-06T15:12:47.987Z,94292.63
2019-04-06T15:15:14.326Z,94297.89
2019-04-06T15:17:40.681Z,94297.57
2019-04-06T15:20:07.019Z,94296.75
2019-04-06T15:22:33.369Z,94295.47
2019-04-06T15:24:59.910Z,94298.05
2019-04-06T15:27:26.132Z,94301.44
2019-04-06T15:29:52.464Z,94304.12
2019-04-06T15:32:18.778Z,94304.40
2019-04-06T15:34:45.164Z,94310.22
2019-04-06T15:37:11.495Z,94315.72
2019-04-06T15:39:37.827Z,94315.84
2019-04-06T15:42:04.232Z,94315.84
2019-04-06T15:44:30.518Z,94323.70
2019-04-06T15:46:56.850Z,94323.36
2019-04-06T15:49:23.200Z,94325.11
2019-04-06T15:51:49.590Z,94325.62
2019-04-06T15:54:15.980Z,94329.05
2019-04-06T15:56:42.421Z,94331.15
2019-04-06T15:59:08.752Z,94338.72
2019-04-06T16:01:35.145Z,94338.41
2019-04-06T16:04:01.485Z,94333.05
2019-04-06T16:06:27.817Z,94340.42
2019-04-06T16:08:54.237Z,94346.98
2019-04-06T16:11:20.835Z,94341.52
2019-04-06T16:13:48.698Z,94352.48
2019-04-06T16:16:13.330Z,94352.13
2019-04-06T16:18:39.973Z,94356.48
2019-04-06T16:21:06.391Z,94360.81
2019-04-06T16:23:32.410Z,94360.27
2019-04-06T16:25:58.661Z,94367.17
2019-04-06T16:28:25.305Z,94370.67
2019-04-06T16:30:51.892Z,94372.93
2019-04-06T16:33:18.156Z,94372.11
2019-04-06T16:35:44.088Z,94370.59
2019-04-06T16:38:10.455Z,94377.17
2019-04-06T16:40:36.789Z,94376.81
2019-04-06T16:43:03.116Z,94378.55
2019-04-06T16:45:29.796Z,94381.73
2019-04-06T16:47:56.380Z,94383.84
2019-04-06T16:50:22.543Z,94383.63
2019-04-06T16:52:48.615Z,94386.11
2019-04-06T16:55:14.952Z,94384.56
2019-04-06T16:57:41.324Z,94396.06
2019-04-06T17:00:18.917Z,94392.60
2019-04-06T17:02:34.074Z,94394.56
2019-04-06T17:05:00.388Z,94394.00
2019-04-06T17:07:26.716Z,94397.66
2019-04-06T17:09:53.267Z,94392.25
2019-04-06T17:12:19.833Z,94392.63
2019-04-06T17:14:45.848Z,94394.88
2019-04-06T17:17:12.127Z,94400.48
2019-04-06T17:19:38.475Z,94401.42
2019-04-06T17:22:04.808Z,94399.93
2019-04-06T17:24:31.513Z,94406.83
2019-04-06T17:26:58.054Z,94411.88
2019-04-06T17:29:24.453Z,94414.45
2019-04-06T17:31:50.683Z,94420.06
2019-04-06T17:34:16.744Z,94419.27
2019-04-06T17:36:43.088Z,94419.73
2019-04-06T17:39:09.526Z,94423.25
2019-04-06T17:41:35.837Z,94420.58
2019-04-06T17:44:02.317Z,94427.97
2019-04-06T17:46:28.905Z,94426.69
2019-04-06T17:48:54.932Z,94428.09
2019-04-06T17:51:21.219Z,94436.16
2019-04-06T17:53:47.558Z,94430.55
2019-04-06T17:56:13.907Z,94435.38
2019-04-06T17:58:40.275Z,94438.06
2019-04-06T18:01:07.200Z,94441.09
2019-04-06T18:03:33.213Z,94438.77
2019-04-06T18:05:59.345Z,94444.95
2019-04-06T18:08:25.784Z,94457.61
2019-04-06T18:10:52.755Z,94449.42
2019-04-06T18:13:18.347Z,94458.53
2019-04-06T18:15:44.686Z,94458.79
2019-04-06T18:18:11.113Z,94469.08
2019-04-06T18:20:37.418Z,94465.11
2019-04-06T18:23:03.747Z,94463.25
2019-04-06T18:25:30.169Z,94465.01
2019-04-06T18:27:56.501Z,94465.72
2019-04-06T18:30:22.900Z,94463.72
2019-04-06T18:32:59.962Z,94462.69
2019-04-06T18:35:15.570Z,94461.05
2019-04-06T18:37:42.375Z,94471.33
2019-04-06T18:40:08.243Z,94463.30
2019-04-06T18:42:34.620Z,94472.76
2019-04-06T18:45:01.001Z,94473.01
2019-04-06T18:47:27.537Z,94475.58
2019-04-06T18:49:53.685Z,94480.26
2019-04-06T18:52:20.101Z,94478.27
2019-04-06T18:54:46.377Z,94478.73
2019-04-06T18:57:12.766Z,94480.02
2019-04-06T18:59:39.160Z,94484.58
2019-04-06T19:02:07.390Z,94485.77
2019-04-06T19:04:31.887Z,94487.19
2019-04-06T19:06:58.237Z,94485.19
2019-04-06T19:09:25.470Z,94481.94
2019-04-06T19:11:55.083Z,94488.69
2019-04-06T19:14:17.323Z,94489.19
2019-04-06T19:16:43.703Z,94492.01
2019-04-06T19:19:10.005Z,94486.86
2019-04-06T19:21:36.336Z,94490.22
2019-04-06T19:24:03.130Z,94492.47
2019-04-06T19:26:29.082Z,94487.88
2019-04-06T19:28:55.451Z,94494.08
2019-04-06T19:31:21.759Z,94486.97
2019-04-06T19:33:48.090Z,94483.94
2019-04-06T19:36:14.706Z,94486.27
2019-04-06T19:38:40.810Z,94487.08
2019-04-06T19:41:07.109Z,94489.33
2019-04-06T19:43:33.471Z,94490.83
2019-04-06T19:45:59.843Z,94486.87
2019-04-06T19:48:26.196Z,94487.58
2019-04-06T19:50:52.541Z,94493.54
2019-04-06T19:53:18.899Z,94485.94
2019-04-06T19:55:45.552Z,94488.64
2019-04-06T19:58:11.627Z,94486.89
2019-04-06T20:00:38.001Z,94479.19
2019-04-06T20:03:04.355Z,94478.94
2019-04-06T20:05:30.963Z,94481.86
2019-04-06T20:07:57.028Z,94485.97
2019-04-06T20:10:23.410Z,94484.32
2019-04-06T20:12:50.322Z,94483.17
2019-04-06T20:15:16.844Z,94489.25
2019-04-06T20:17:42.724Z,94489.70
2019-04-06T20:20:08.985Z,94487.14
2019-04-06T20:22:35.383Z,94489.25
2019-04-06T20:25:02.142Z,94488.20
2019-04-06T20:27:28.546Z,94486.45
2019-04-06T20:29:54.443Z,94486.45
2019-04-06T20:32:21.302Z,94478.64
2019-04-06T20:34:47.176Z,94481.56
2019-04-06T20:37:13.874Z,94481.20
2019-04-06T20:39:39.873Z,94481.20
2019-04-06T20:42:06.199Z,94479.59
2019-04-06T20:44:32.581Z,94480.88
2019-04-06T20:46:59.445Z,94480.06
2019-04-06T20:49:25.285Z,94477.73
2019-04-06T20:51:52.262Z,94472.59
2019-04-06T20:54:18.136Z,94479.48
2019-04-06T20:56:54.821Z,94472.10
2019-04-06T20:59:10.763Z,94475.27
2019-04-06T21:01:37.147Z,94472.84
2019-04-06T21:04:03.437Z,94469.09
2019-04-06T21:06:29.785Z,94465.38
2019-04-06T21:08:56.183Z,94475.16
2019-04-06T21:11:22.435Z,94470.62
2019-04-06T21:13:48.764Z,94467.59
2019-04-06T21:16:15.258Z,94468.05
2019-04-06T21:18:41.882Z,94471.09
2019-04-06T21:21:07.851Z,94479.26
2019-04-06T21:23:34.305Z,94476.36
2019-04-06T21:26:00.703Z,94473.90
2019-04-06T21:28:27.037Z,94472.62
2019-04-06T21:30:53.419Z,94468.41
2019-04-06T21:33:19.796Z,94467.62
2019-04-06T21:35:46.074Z,94464.69
2019-04-06T21:38:12.406Z,94467.36
2019-04-06T21:40:38.746Z,94455.80
2019-04-06T21:43:05.098Z,94461.91
2019-04-06T21:45:31.500Z,94452.91
2019-04-06T21:47:57.804Z,94457.80
2019-04-06T21:50:24.168Z,94454.91
2019-04-06T21:52:50.831Z,94456.52
2019-04-06T21:55:16.937Z,94455.97
2019-04-06T21:57:43.331Z,94455.83
2019-04-06T22:00:09.666Z,94450.94
2019-04-06T22:02:35.990Z,94452.58
2019-04-06T22:05:03.007Z,94449.66
2019-04-06T22:07:28.832Z,94450.83
2019-04-06T22:09:55.062Z,94451.30
2019-04-06T22:12:21.733Z,94448.97
2019-04-06T22:14:47.724Z,94449.44
2019-04-06T22:17:14.393Z,94450.36
2019-04-06T22:19:40.973Z,94444.77
2019-04-06T22:22:06.766Z,94440.55
2019-04-06T22:24:33.112Z,94446.16
2019-04-06T22:27:00.081Z,94440.23
2019-04-06T22:29:25.906Z,94439.30
2019-04-06T22:31:52.708Z,94438.83
2019-04-06T22:34:18.572Z,94441.40
2019-04-06T22:36:45.154Z,94442.22
2019-04-06T22:39:11.406Z,94437.66
2019-04-06T22:41:37.770Z,94439.17
2019-04-06T22:44:04.207Z,94439.89
2019-04-06T22:46:30.588Z,94447.70
2019-04-06T22:48:57.427Z,94443.48
2019-04-06T22:51:23.213Z,94443.63
2019-04-06T22:53:49.604Z,94437.56
2019-04-06T22:56:16.567Z,94441.88
2019-04-06T22:58:42.327Z,94441.17
2019-04-06T23:01:08.766Z,94442.45
2019-04-06T23:03:35.516Z,94443.52
2019-04-06T23:06:01.396Z,94442.23
2019-04-06T23:08:27.790Z,94440.59
2019-04-06T23:10:54.099Z,94438.59
2019-04-06T23:13:20.481Z,94437.41
2019-04-06T23:15:47.938Z,94440.69
2019-04-06T23:18:13.159Z,94439.05
2019-04-06T23:20:39.507Z,94440.69
2019-04-06T23:23:05.908Z,94446.06
2019-04-06T23:25:32.368Z,94446.63
2019-04-06T23:27:58.623Z,94443.14
2019-04-06T23:30:25.001Z,94438.94
2019-04-06T23:32:51.558Z,94437.65
2019-04-06T23:35:18.526Z,94436.97
2019-04-06T23:37:44.686Z,94438.25
2019-04-06T23:40:11.196Z,94431.47
2019-04-06T23:42:36.898Z,94439.17
2019-04-06T23:45:03.574Z,94437.67
2019-04-06T23:47:29.754Z,94430.20
2019-04-06T23:49:56.268Z,94440.02
2019-04-06T23:52:22.777Z,94436.84
2019-04-06T23:54:48.811Z,94437.09
2019-04-06T23:57:15.194Z,94429.85
2019-04-06T23:59:42.212Z,94428.56
